sensor_id;sensor_type;location;lat;lon;timestamp;pressure;altitude;pressure_sealevel;temperature;humidity
20793;BME280;10556;-33.662;151.094;2022-10-16T00:01:59;99573.03;;;20.56;100.00
20793;BME280;10556;-33.662;151.094;2022-10-16T00:07:02;99565.41;;;20.64;100.00
20793;BME280;10556;-33.662;151.094;2022-10-16T00:12:06;99559.81;;;20.69;100.00
20793;BME280;10556;-33.662;151.094;2022-10-16T00:17:09;99556.00;;;20.54;100.00
20793;BME280;10556;-33.662;151.094;2022-10-16T00:22:11;99550.41;;;20.49;100.00
20793;BME280;10556;-33.662;151.094;2022-10-16T00:27:16;99547.00;;;20.67;100.00
20793;BME280;10556;-33.662;151.094;2022-10-16T00:32:18;99532.66;;;21.02;100.00
20793;BME280;10556;-33.662;151.094;2022-10-16T00:37:21;99531.00;;;21.29;100.00
20793;BME280;10556;-33.662;151.094;2022-10-16T00:42:26;99534.22;;;21.60;100.00
20793;BME280;10556;-33.662;151.094;2022-10-16T00:47:30;99521.84;;;21.82;100.00
20793;BME280;10556;-33.662;151.094;2022-10-16T00:52:34;99516.44;;;21.93;98.89
20793;BME280;10556;-33.662;151.094;2022-10-16T00:57:39;99527.25;;;21.98;100.00
20793;BME280;10556;-33.662;151.094;2022-10-16T01:02:42;99521.53;;;21.94;100.00
20793;BME280;10556;-33.662;151.094;2022-10-16T01:07:48;99517.44;;;21.92;100.00
20793;BME280;10556;-33.662;151.094;2022-10-16T01:13:00;99517.69;;;21.98;100.00
20793;BME280;10556;-33.662;151.094;2022-10-16T01:18:08;99512.22;;;22.19;100.00
20793;BME280;10556;-33.662;151.094;2022-10-16T01:23:21;99503.94;;;22.15;100.00
20793;BME280;10556;-33.662;151.094;2022-10-16T01:28:36;99497.44;;;22.02;100.00
20793;BME280;10556;-33.662;151.094;2022-10-16T01:33:43;99491.59;;;22.00;100.00
20793;BME280;10556;-33.662;151.094;2022-10-16T01:38:49;99477.94;;;21.98;100.00
20793;BME280;10556;-33.662;151.094;2022-10-16T01:43:59;99478.31;;;21.75;100.00
20793;BME280;10556;-33.662;151.094;2022-10-16T01:49:05;99483.72;;;21.55;100.00
20793;BME280;10556;-33.662;151.094;2022-10-16T01:54:09;99481.06;;;21.37;100.00
20793;BME280;10556;-33.662;151.094;2022-10-16T01:59:18;99473.00;;;21.40;100.00
20793;BME280;10556;-33.662;151.094;2022-10-16T02:04:25;99463.88;;;21.36;100.00
20793;BME280;10556;-33.662;151.094;2022-10-16T02:09:30;99465.81;;;21.34;100.00
20793;BME280;10556;-33.662;151.094;2022-10-16T02:14:38;99459.75;;;21.70;100.00
20793;BME280;10556;-33.662;151.094;2022-10-16T02:19:42;99452.22;;;22.04;100.00
20793;BME280;10556;-33.662;151.094;2022-10-16T02:24:52;99441.47;;;22.17;100.00
20793;BME280;10556;-33.662;151.094;2022-10-16T02:30:02;99451.63;;;22.46;100.00
20793;BME280;10556;-33.662;151.094;2022-10-16T02:35:08;99449.81;;;22.64;100.00
20793;BME280;10556;-33.662;151.094;2022-10-16T02:40:12;99442.78;;;22.56;100.00
20793;BME280;10556;-33.662;151.094;2022-10-16T02:45:17;99443.50;;;22.67;100.00
20793;BME280;10556;-33.662;151.094;2022-10-16T02:50:20;99437.34;;;22.85;100.00
20793;BME280;10556;-33.662;151.094;2022-10-16T02:55:23;99426.97;;;22.93;100.00
20793;BME280;10556;-33.662;151.094;2022-10-16T03:00:27;99426.94;;;22.85;99.12
20793;BME280;10556;-33.662;151.094;2022-10-16T03:05:30;99409.81;;;22.75;96.75
20793;BME280;10556;-33.662;151.094;2022-10-16T03:10:32;99402.84;;;22.57;100.00
20793;BME280;10556;-33.662;151.094;2022-10-16T03:15:37;99392.00;;;22.62;100.00
20793;BME280;10556;-33.662;151.094;2022-10-16T03:20:39;99378.81;;;22.73;100.00
20793;BME280;10556;-33.662;151.094;2022-10-16T03:25:42;99368.81;;;22.69;98.38
20793;BME280;10556;-33.662;151.094;2022-10-16T03:30:46;99372.53;;;22.66;99.18
20793;BME280;10556;-33.662;151.094;2022-10-16T03:35:52;99368.25;;;22.57;99.45
20793;BME280;10556;-33.662;151.094;2022-10-16T03:40:55;99375.03;;;22.50;100.00
20793;BME280;10556;-33.662;151.094;2022-10-16T03:45:59;99367.31;;;22.58;100.00
20793;BME280;10556;-33.662;151.094;2022-10-16T03:51:02;99366.47;;;22.57;98.41
20793;BME280;10556;-33.662;151.094;2022-10-16T03:56:05;99369.38;;;22.54;100.00
20793;BME280;10556;-33.662;151.094;2022-10-16T04:01:09;99367.66;;;22.20;100.00
20793;BME280;10556;-33.662;151.094;2022-10-16T04:06:12;99366.94;;;22.09;100.00
20793;BME280;10556;-33.662;151.094;2022-10-16T04:11:14;99371.25;;;22.01;100.00
20793;BME280;10556;-33.662;151.094;2022-10-16T04:16:19;99363.59;;;21.99;100.00
20793;BME280;10556;-33.662;151.094;2022-10-16T04:21:21;99352.13;;;21.92;100.00
20793;BME280;10556;-33.662;151.094;2022-10-16T04:26:24;99354.34;;;21.87;100.00
20793;BME280;10556;-33.662;151.094;2022-10-16T04:31:29;99343.78;;;21.98;100.00
20793;BME280;10556;-33.662;151.094;2022-10-16T04:36:31;99348.25;;;22.06;100.00
20793;BME280;10556;-33.662;151.094;2022-10-16T04:41:34;99332.88;;;22.12;100.00
20793;BME280;10556;-33.662;151.094;2022-10-16T04:46:38;99339.94;;;22.20;100.00
20793;BME280;10556;-33.662;151.094;2022-10-16T04:51:41;99331.41;;;22.10;100.00
20793;BME280;10556;-33.662;151.094;2022-10-16T04:56:43;99329.91;;;22.07;100.00
20793;BME280;10556;-33.662;151.094;2022-10-16T05:01:48;99332.19;;;21.93;100.00
20793;BME280;10556;-33.662;151.094;2022-10-16T05:06:50;99331.31;;;21.84;100.00
20793;BME280;10556;-33.662;151.094;2022-10-16T05:11:53;99336.19;;;21.87;100.00
20793;BME280;10556;-33.662;151.094;2022-10-16T05:16:58;99338.78;;;21.87;100.00
20793;BME280;10556;-33.662;151.094;2022-10-16T05:22:01;99343.25;;;21.77;100.00
20793;BME280;10556;-33.662;151.094;2022-10-16T05:27:04;99350.28;;;21.67;100.00
20793;BME280;10556;-33.662;151.094;2022-10-16T05:32:09;99348.47;;;21.50;100.00
20793;BME280;10556;-33.662;151.094;2022-10-16T05:37:11;99342.91;;;21.45;100.00
20793;BME280;10556;-33.662;151.094;2022-10-16T05:42:14;99343.44;;;21.48;100.00
20793;BME280;10556;-33.662;151.094;2022-10-16T05:47:19;99351.94;;;21.41;100.00
20793;BME280;10556;-33.662;151.094;2022-10-16T05:52:21;99365.81;;;21.22;100.00
20793;BME280;10556;-33.662;151.094;2022-10-16T05:57:24;99368.38;;;20.95;100.00
20793;BME280;10556;-33.662;151.094;2022-10-16T06:02:28;99377.94;;;20.84;100.00
20793;BME280;10556;-33.662;151.094;2022-10-16T06:07:34;99379.44;;;20.77;100.00
20793;BME280;10556;-33.662;151.094;2022-10-16T06:12:37;99393.91;;;20.80;100.00
20793;BME280;10556;-33.662;151.094;2022-10-16T06:17:42;99392.41;;;20.77;100.00
20793;BME280;10556;-33.662;151.094;2022-10-16T06:22:44;99414.69;;;20.51;100.00
20793;BME280;10556;-33.662;151.094;2022-10-16T06:27:47;99425.28;;;20.38;100.00
20793;BME280;10556;-33.662;151.094;2022-10-16T06:32:51;99432.94;;;20.30;100.00
20793;BME280;10556;-33.662;151.094;2022-10-16T06:37:54;99441.06;;;20.07;100.00
20793;BME280;10556;-33.662;151.094;2022-10-16T06:42:56;99445.28;;;19.98;100.00
20793;BME280;10556;-33.662;151.094;2022-10-16T06:48:01;99449.06;;;19.84;100.00
20793;BME280;10556;-33.662;151.094;2022-10-16T06:53:03;99452.59;;;19.83;100.00
20793;BME280;10556;-33.662;151.094;2022-10-16T06:58:06;99439.78;;;19.82;100.00
20793;BME280;10556;-33.662;151.094;2022-10-16T07:03:10;99445.34;;;19.77;100.00
20793;BME280;10556;-33.662;151.094;2022-10-16T07:08:13;99453.50;;;19.73;100.00
20793;BME280;10556;-33.662;151.094;2022-10-16T07:13:16;99463.84;;;19.63;100.00
20793;BME280;10556;-33.662;151.094;2022-10-16T07:18:20;99463.28;;;19.59;100.00
20793;BME280;10556;-33.662;151.094;2022-10-16T07:23:23;99465.72;;;19.51;100.00
20793;BME280;10556;-33.662;151.094;2022-10-16T07:28:26;99475.84;;;19.43;100.00
20793;BME280;10556;-33.662;151.094;2022-10-16T07:33:30;99471.44;;;19.34;100.00
20793;BME280;10556;-33.662;151.094;2022-10-16T07:38:33;99474.41;;;19.30;100.00
20793;BME280;10556;-33.662;151.094;2022-10-16T07:43:36;99482.00;;;19.22;100.00
20793;BME280;10556;-33.662;151.094;2022-10-16T07:48:41;99489.19;;;19.18;100.00
20793;BME280;10556;-33.662;151.094;2022-10-16T07:53:43;99497.19;;;19.15;100.00
20793;BME280;10556;-33.662;151.094;2022-10-16T07:58:46;99495.25;;;19.07;100.00
20793;BME280;10556;-33.662;151.094;2022-10-16T08:03:51;99500.78;;;19.03;100.00
20793;BME280;10556;-33.662;151.094;2022-10-16T08:08:54;99511.50;;;18.98;100.00
20793;BME280;10556;-33.662;151.094;2022-10-16T08:13:57;99508.31;;;18.95;100.00
20793;BME280;10556;-33.662;151.094;2022-10-16T08:19:01;99516.34;;;18.92;100.00
20793;BME280;10556;-33.662;151.094;2022-10-16T08:24:04;99506.28;;;18.89;100.00
20793;BME280;10556;-33.662;151.094;2022-10-16T08:29:06;99518.59;;;18.85;100.00
20793;BME280;10556;-33.662;151.094;2022-10-16T08:34:11;99523.91;;;18.84;100.00
20793;BME280;10556;-33.662;151.094;2022-10-16T08:39:14;99530.13;;;18.81;100.00
20793;BME280;10556;-33.662;151.094;2022-10-16T08:44:47;99538.94;;;18.79;100.00
20793;BME280;10556;-33.662;151.094;2022-10-16T08:50:02;99548.56;;;18.77;100.00
20793;BME280;10556;-33.662;151.094;2022-10-16T08:55:22;99555.63;;;18.75;100.00
20793;BME280;10556;-33.662;151.094;2022-10-16T09:00:27;99571.13;;;18.75;100.00
20793;BME280;10556;-33.662;151.094;2022-10-16T09:05:52;99579.56;;;18.77;100.00
20793;BME280;10556;-33.662;151.094;2022-10-16T09:11:00;99587.19;;;18.78;100.00
20793;BME280;10556;-33.662;151.094;2022-10-16T09:16:14;99593.03;;;18.80;100.00
20793;BME280;10556;-33.662;151.094;2022-10-16T09:21:25;99604.19;;;18.81;100.00
20793;BME280;10556;-33.662;151.094;2022-10-16T09:26:28;99602.31;;;18.83;100.00
20793;BME280;10556;-33.662;151.094;2022-10-16T09:31:31;99609.81;;;18.86;100.00
20793;BME280;10556;-33.662;151.094;2022-10-16T09:36:40;99612.38;;;18.86;100.00
20793;BME280;10556;-33.662;151.094;2022-10-16T09:41:45;99616.16;;;18.82;100.00
20793;BME280;10556;-33.662;151.094;2022-10-16T09:46:48;99626.50;;;18.82;100.00
20793;BME280;10556;-33.662;151.094;2022-10-16T09:52:03;99622.50;;;18.78;100.00
20793;BME280;10556;-33.662;151.094;2022-10-16T09:57:06;99616.25;;;18.80;100.00
20793;BME280;10556;-33.662;151.094;2022-10-16T10:02:15;99612.19;;;18.78;100.00
20793;BME280;10556;-33.662;151.094;2022-10-16T10:07:25;99613.47;;;18.72;100.00
20793;BME280;10556;-33.662;151.094;2022-10-16T10:12:29;99618.19;;;18.67;100.00
20793;BME280;10556;-33.662;151.094;2022-10-16T10:17:32;99632.28;;;18.63;100.00
20793;BME280;10556;-33.662;151.094;2022-10-16T10:22:43;99646.28;;;18.60;100.00
20793;BME280;10556;-33.662;151.094;2022-10-16T10:27:59;99643.91;;;18.57;100.00
20793;BME280;10556;-33.662;151.094;2022-10-16T10:33:18;99657.88;;;18.55;100.00
20793;BME280;10556;-33.662;151.094;2022-10-16T10:38:32;99656.31;;;18.52;100.00
20793;BME280;10556;-33.662;151.094;2022-10-16T10:43:48;99650.47;;;18.50;100.00
20793;BME280;10556;-33.662;151.094;2022-10-16T10:49:04;99649.19;;;18.45;100.00
20793;BME280;10556;-33.662;151.094;2022-10-16T10:54:17;99651.19;;;18.41;100.00
20793;BME280;10556;-33.662;151.094;2022-10-16T10:59:42;99657.50;;;18.37;100.00
20793;BME280;10556;-33.662;151.094;2022-10-16T11:10:33;99644.72;;;18.24;100.00
20793;BME280;10556;-33.662;151.094;2022-10-16T11:15:40;99640.84;;;18.19;100.00
20793;BME280;10556;-33.662;151.094;2022-10-16T11:20:50;99647.91;;;18.17;100.00
20793;BME280;10556;-33.662;151.094;2022-10-16T11:25:57;99654.25;;;18.13;100.00
20793;BME280;10556;-33.662;151.094;2022-10-16T11:31:08;99652.59;;;18.12;100.00
20793;BME280;10556;-33.662;151.094;2022-10-16T11:36:15;99656.94;;;18.11;100.00
20793;BME280;10556;-33.662;151.094;2022-10-16T11:41:27;99655.28;;;18.10;100.00
20793;BME280;10556;-33.662;151.094;2022-10-16T11:46:32;99657.16;;;18.08;100.00
20793;BME280;10556;-33.662;151.094;2022-10-16T11:51:39;99655.53;;;18.07;100.00
20793;BME280;10556;-33.662;151.094;2022-10-16T11:56:46;99659.03;;;18.06;100.00
20793;BME280;10556;-33.662;151.094;2022-10-16T12:01:52;99656.56;;;18.05;100.00
20793;BME280;10556;-33.662;151.094;2022-10-16T12:07:02;99649.66;;;18.05;100.00
20793;BME280;10556;-33.662;151.094;2022-10-16T12:12:26;99637.00;;;18.02;100.00
20793;BME280;10556;-33.662;151.094;2022-10-16T12:17:35;99648.25;;;18.01;100.00
20793;BME280;10556;-33.662;151.094;2022-10-16T12:22:47;99652.81;;;17.98;100.00
20793;BME280;10556;-33.662;151.094;2022-10-16T12:27:57;99654.78;;;17.94;100.00
20793;BME280;10556;-33.662;151.094;2022-10-16T12:33:02;99650.47;;;17.95;100.00
20793;BME280;10556;-33.662;151.094;2022-10-16T12:38:15;99645.44;;;17.93;100.00
20793;BME280;10556;-33.662;151.094;2022-10-16T12:43:38;99648.84;;;17.94;100.00
20793;BME280;10556;-33.662;151.094;2022-10-16T12:48:42;99648.84;;;17.94;100.00
20793;BME280;10556;-33.662;151.094;2022-10-16T12:53:45;99645.53;;;17.92;100.00
20793;BME280;10556;-33.662;151.094;2022-10-16T12:58:59;99637.81;;;17.92;100.00
20793;BME280;10556;-33.662;151.094;2022-10-16T13:09:44;99639.81;;;17.88;100.00
20793;BME280;10556;-33.662;151.094;2022-10-16T13:15:07;99649.28;;;17.88;100.00
20793;BME280;10556;-33.662;151.094;2022-10-16T13:20:20;99653.88;;;17.84;100.00
20793;BME280;10556;-33.662;151.094;2022-10-16T13:25:28;99651.41;;;17.82;100.00
20793;BME280;10556;-33.662;151.094;2022-10-16T13:30:39;99651.50;;;17.81;100.00
20793;BME280;10556;-33.662;151.094;2022-10-16T13:35:49;99649.84;;;17.80;100.00
20793;BME280;10556;-33.662;151.094;2022-10-16T13:40:54;99653.50;;;17.77;100.00
20793;BME280;10556;-33.662;151.094;2022-10-16T13:46:00;99646.78;;;17.75;100.00
20793;BME280;10556;-33.662;151.094;2022-10-16T13:51:05;99652.19;;;17.72;100.00
20793;BME280;10556;-33.662;151.094;2022-10-16T13:56:11;99649.03;;;17.68;100.00
20793;BME280;10556;-33.662;151.094;2022-10-16T14:01:19;99651.94;;;17.64;100.00
20793;BME280;10556;-33.662;151.094;2022-10-16T14:06:23;99654.94;;;17.58;100.00
20793;BME280;10556;-33.662;151.094;2022-10-16T14:11:26;99656.09;;;17.54;100.00
20793;BME280;10556;-33.662;151.094;2022-10-16T14:16:32;99650.22;;;17.52;100.00
20793;BME280;10556;-33.662;151.094;2022-10-16T14:21:35;99644.25;;;17.51;100.00
20793;BME280;10556;-33.662;151.094;2022-10-16T14:26:42;99641.69;;;17.51;100.00
20793;BME280;10556;-33.662;151.094;2022-10-16T14:31:55;99629.13;;;17.47;100.00
20793;BME280;10556;-33.662;151.094;2022-10-16T14:37:01;99628.31;;;17.46;100.00
20793;BME280;10556;-33.662;151.094;2022-10-16T14:42:16;99625.88;;;17.44;100.00
20793;BME280;10556;-33.662;151.094;2022-10-16T14:47:21;99616.50;;;17.43;100.00
20793;BME280;10556;-33.662;151.094;2022-10-16T14:52:25;99622.47;;;17.44;100.00
20793;BME280;10556;-33.662;151.094;2022-10-16T14:57:28;99608.16;;;17.40;100.00
20793;BME280;10556;-33.662;151.094;2022-10-16T15:02:36;99603.13;;;17.38;100.00
20793;BME280;10556;-33.662;151.094;2022-10-16T15:07:38;99599.03;;;17.36;100.00
20793;BME280;10556;-33.662;151.094;2022-10-16T15:12:42;99590.59;;;17.34;100.00
20793;BME280;10556;-33.662;151.094;2022-10-16T15:17:47;99577.94;;;17.31;100.00
20793;BME280;10556;-33.662;151.094;2022-10-16T15:22:49;99577.13;;;17.30;100.00
20793;BME280;10556;-33.662;151.094;2022-10-16T15:27:52;99576.50;;;17.27;100.00
20793;BME280;10556;-33.662;151.094;2022-10-16T15:32:56;99584.34;;;17.25;100.00
20793;BME280;10556;-33.662;151.094;2022-10-16T15:37:59;99581.88;;;17.24;100.00
20793;BME280;10556;-33.662;151.094;2022-10-16T15:43:02;99572.66;;;17.21;100.00
20793;BME280;10556;-33.662;151.094;2022-10-16T15:48:07;99582.00;;;17.22;100.00
20793;BME280;10556;-33.662;151.094;2022-10-16T15:53:11;99585.38;;;17.23;100.00
20793;BME280;10556;-33.662;151.094;2022-10-16T15:58:14;99585.38;;;17.23;100.00
20793;BME280;10556;-33.662;151.094;2022-10-16T16:03:18;99597.44;;;17.22;100.00
20793;BME280;10556;-33.662;151.094;2022-10-16T16:08:21;99590.53;;;17.23;100.00
20793;BME280;10556;-33.662;151.094;2022-10-16T16:13:24;99590.69;;;17.21;100.00
20793;BME280;10556;-33.662;151.094;2022-10-16T16:18:28;99599.31;;;17.20;100.00
20793;BME280;10556;-33.662;151.094;2022-10-16T16:23:31;99608.91;;;17.18;100.00
20793;BME280;10556;-33.662;151.094;2022-10-16T16:28:34;99596.25;;;17.15;100.00
20793;BME280;10556;-33.662;151.094;2022-10-16T16:33:38;99604.09;;;17.14;100.00
20793;BME280;10556;-33.662;151.094;2022-10-16T16:38:41;99603.41;;;17.12;100.00
20793;BME280;10556;-33.662;151.094;2022-10-16T16:43:44;99606.06;;;17.10;100.00
20793;BME280;10556;-33.662;151.094;2022-10-16T16:48:48;99607.81;;;17.10;100.00
20793;BME280;10556;-33.662;151.094;2022-10-16T16:53:52;99611.47;;;17.07;100.00
20793;BME280;10556;-33.662;151.094;2022-10-16T16:58:57;99617.41;;;17.08;100.00
20793;BME280;10556;-33.662;151.094;2022-10-16T17:04:02;99625.47;;;17.03;100.00
20793;BME280;10556;-33.662;151.094;2022-10-16T17:09:06;99616.13;;;17.02;100.00
20793;BME280;10556;-33.662;151.094;2022-10-16T17:14:08;99617.06;;;17.01;100.00
20793;BME280;10556;-33.662;151.094;2022-10-16T17:19:14;99613.88;;;16.97;100.00
20793;BME280;10556;-33.662;151.094;2022-10-16T17:24:18;99624.38;;;16.94;100.00
20793;BME280;10556;-33.662;151.094;2022-10-16T17:29:20;99626.13;;;16.94;100.00
20793;BME280;10556;-33.662;151.094;2022-10-16T17:34:25;99629.88;;;16.90;100.00
20793;BME280;10556;-33.662;151.094;2022-10-16T17:39:28;99633.69;;;16.84;100.00
20793;BME280;10556;-33.662;151.094;2022-10-16T17:44:30;99648.44;;;16.82;100.00
20793;BME280;10556;-33.662;151.094;2022-10-16T17:49:35;99652.03;;;16.80;100.00
20793;BME280;10556;-33.662;151.094;2022-10-16T17:54:37;99656.59;;;16.76;100.00
20793;BME280;10556;-33.662;151.094;2022-10-16T17:59:40;99668.03;;;16.72;100.00
20793;BME280;10556;-33.662;151.094;2022-10-16T18:04:45;99670.00;;;16.69;100.00
20793;BME280;10556;-33.662;151.094;2022-10-16T18:09:47;99671.25;;;16.63;100.00
20793;BME280;10556;-33.662;151.094;2022-10-16T18:14:50;99674.97;;;16.59;100.00
20793;BME280;10556;-33.662;151.094;2022-10-16T18:19:55;99682.16;;;16.54;100.00
20793;BME280;10556;-33.662;151.094;2022-10-16T18:24:57;99687.63;;;16.49;100.00
20793;BME280;10556;-33.662;151.094;2022-10-16T18:30:00;99684.53;;;16.44;100.00
20793;BME280;10556;-33.662;151.094;2022-10-16T18:35:05;99683.91;;;16.41;100.00
20793;BME280;10556;-33.662;151.094;2022-10-16T18:40:07;99683.19;;;16.39;100.00
20793;BME280;10556;-33.662;151.094;2022-10-16T18:45:10;99690.50;;;16.32;100.00
20793;BME280;10556;-33.662;151.094;2022-10-16T18:50:15;99699.13;;;16.31;100.00
20793;BME280;10556;-33.662;151.094;2022-10-16T18:55:18;99700.78;;;16.32;100.00
20793;BME280;10556;-33.662;151.094;2022-10-16T19:00:21;99702.44;;;16.33;100.00
20793;BME280;10556;-33.662;151.094;2022-10-16T19:05:25;99703.28;;;16.34;100.00
20793;BME280;10556;-33.662;151.094;2022-10-16T19:10:28;99709.25;;;16.34;100.00
20793;BME280;10556;-33.662;151.094;2022-10-16T19:15:30;99716.13;;;16.34;100.00
20793;BME280;10556;-33.662;151.094;2022-10-16T19:20:35;99714.47;;;16.33;100.00
20793;BME280;10556;-33.662;151.094;2022-10-16T19:25:38;99733.53;;;16.30;100.00
20793;BME280;10556;-33.662;151.094;2022-10-16T19:30:41;99730.22;;;16.28;100.00
20793;BME280;10556;-33.662;151.094;2022-10-16T19:35:46;99744.00;;;16.27;100.00
20793;BME280;10556;-33.662;151.094;2022-10-16T19:40:48;99751.19;;;16.22;100.00
20793;BME280;10556;-33.662;151.094;2022-10-16T19:45:51;99756.56;;;16.19;100.00
20793;BME280;10556;-33.662;151.094;2022-10-16T19:50:56;99760.25;;;16.15;100.00
20793;BME280;10556;-33.662;151.094;2022-10-16T19:55:58;99773.59;;;16.07;100.00
20793;BME280;10556;-33.662;151.094;2022-10-16T20:01:01;99772.47;;;15.99;100.00
20793;BME280;10556;-33.662;151.094;2022-10-16T20:06:07;99768.53;;;15.93;100.00
20793;BME280;10556;-33.662;151.094;2022-10-16T20:11:11;99771.25;;;15.92;100.00
20793;BME280;10556;-33.662;151.094;2022-10-16T20:16:15;99772.16;;;15.91;100.00
20793;BME280;10556;-33.662;151.094;2022-10-16T20:21:21;99778.81;;;15.93;100.00
20793;BME280;10556;-33.662;151.094;2022-10-16T20:26:24;99783.97;;;15.93;100.00
20793;BME280;10556;-33.662;151.094;2022-10-16T20:31:28;99795.00;;;15.95;100.00
20793;BME280;10556;-33.662;151.094;2022-10-16T20:36:32;99800.97;;;15.96;100.00
20793;BME280;10556;-33.662;151.094;2022-10-16T20:41:36;99804.44;;;15.95;100.00
20793;BME280;10556;-33.662;151.094;2022-10-16T20:46:38;99813.81;;;15.96;100.00
20793;BME280;10556;-33.662;151.094;2022-10-16T20:51:43;99818.94;;;15.96;100.00
20793;BME280;10556;-33.662;151.094;2022-10-16T20:56:46;99823.19;;;15.97;100.00
20793;BME280;10556;-33.662;151.094;2022-10-16T21:01:48;99841.19;;;15.97;100.00
20793;BME280;10556;-33.662;151.094;2022-10-16T21:06:53;99835.09;;;15.98;100.00
20793;BME280;10556;-33.662;151.094;2022-10-16T21:11:55;99846.19;;;15.98;100.00
20793;BME280;10556;-33.662;151.094;2022-10-16T21:16:58;99850.50;;;15.98;100.00
20793;BME280;10556;-33.662;151.094;2022-10-16T21:22:02;99854.72;;;15.99;100.00
20793;BME280;10556;-33.662;151.094;2022-10-16T21:27:05;99865.84;;;15.99;100.00
20793;BME280;10556;-33.662;151.094;2022-10-16T21:32:07;99874.28;;;16.01;100.00
20793;BME280;10556;-33.662;151.094;2022-10-16T21:37:12;99872.66;;;16.00;100.00
20793;BME280;10556;-33.662;151.094;2022-10-16T21:42:15;99875.00;;;16.03;100.00
20793;BME280;10556;-33.662;151.094;2022-10-16T21:47:17;99865.75;;;16.01;100.00
20793;BME280;10556;-33.662;151.094;2022-10-16T21:52:22;99874.91;;;16.05;100.00
20793;BME280;10556;-33.662;151.094;2022-10-16T21:57:24;99876.59;;;16.19;100.00
20793;BME280;10556;-33.662;151.094;2022-10-16T22:02:27;99872.00;;;16.36;100.00
20793;BME280;10556;-33.662;151.094;2022-10-16T22:07:31;99874.41;;;16.52;100.00
20793;BME280;10556;-33.662;151.094;2022-10-16T22:12:34;99871.84;;;16.65;100.00
20793;BME280;10556;-33.662;151.094;2022-10-16T22:17:36;99874.75;;;16.73;100.00
20793;BME280;10556;-33.662;151.094;2022-10-16T22:22:41;99882.28;;;16.76;100.00
20793;BME280;10556;-33.662;151.094;2022-10-16T22:27:43;99893.47;;;16.75;100.00
20793;BME280;10556;-33.662;151.094;2022-10-16T22:32:46;99897.19;;;16.71;100.00
20793;BME280;10556;-33.662;151.094;2022-10-16T22:37:50;99890.69;;;16.65;100.00
20793;BME280;10556;-33.662;151.094;2022-10-16T22:42:53;99881.63;;;16.60;100.00
20793;BME280;10556;-33.662;151.094;2022-10-16T22:47:56;99885.84;;;16.61;100.00
20793;BME280;10556;-33.662;151.094;2022-10-16T22:53:00;99880.53;;;16.64;100.00
20793;BME280;10556;-33.662;151.094;2022-10-16T22:58:03;99883.72;;;16.67;100.00
20793;BME280;10556;-33.662;151.094;2022-10-16T23:03:05;99875.38;;;16.76;100.00
20793;BME280;10556;-33.662;151.094;2022-10-16T23:08:10;99880.13;;;16.82;100.00
20793;BME280;10556;-33.662;151.094;2022-10-16T23:13:13;99873.94;;;16.85;100.00
20793;BME280;10556;-33.662;151.094;2022-10-16T23:18:16;99870.72;;;16.94;100.00
20793;BME280;10556;-33.662;151.094;2022-10-16T23:23:20;99871.06;;;17.02;100.00
20793;BME280;10556;-33.662;151.094;2022-10-16T23:28:23;99874.84;;;17.09;100.00
20793;BME280;10556;-33.662;151.094;2022-10-16T23:33:26;99877.31;;;17.11;100.00
20793;BME280;10556;-33.662;151.094;2022-10-16T23:38:30;99869.19;;;17.17;100.00
20793;BME280;10556;-33.662;151.094;2022-10-16T23:43:33;99877.38;;;17.22;100.00
20793;BME280;10556;-33.662;151.094;2022-10-16T23:48:35;99868.41;;;17.27;100.00
20793;BME280;10556;-33.662;151.094;2022-10-16T23:53:40;99876.97;;;17.28;100.00
20793;BME280;10556;-33.662;151.094;2022-10-16T23:58:42;99872.13;;;17.36;100.00
